sensor_id;sensor_type;location;lat;lon;timestamp;pressure;altitude;pressure_sealevel;temperature;humidity
35129;BME280;21301;43.626;10.580;2024-02-26T00:00:27;100779.34;;;6.68;100.00
35129;BME280;21301;43.626;10.580;2024-02-26T00:02:53;100771.03;;;6.61;100.00
35129;BME280;21301;43.626;10.580;2024-02-26T00:05:19;100772.91;;;6.59;100.00
35129;BME280;21301;43.626;10.580;2024-02-26T00:07:45;100763.06;;;6.49;100.00
35129;BME280;21301;43.626;10.580;2024-02-26T00:10:10;100755.91;;;6.52;100.00
35129;BME280;21301;43.626;10.580;2024-02-26T00:12:37;100755.97;;;6.51;100.00
35129;BME280;21301;43.626;10.580;2024-02-26T00:15:05;100758.84;;;6.46;100.00
35129;BME280;21301;43.626;10.580;2024-02-26T00:17:31;100754.72;;;6.42;100.00
35129;BME280;21301;43.626;10.580;2024-02-26T00:19:56;100756.16;;;6.48;100.00
35129;BME280;21301;43.626;10.580;2024-02-26T00:22:22;100750.63;;;6.38;100.00
35129;BME280;21301;43.626;10.580;2024-02-26T00:24:49;100747.19;;;6.37;100.00
35129;BME280;21301;43.626;10.580;2024-02-26T00:27:15;100744.66;;;6.36;100.00
35129;BME280;21301;43.626;10.580;2024-02-26T00:29:41;100734.28;;;6.34;100.00
35129;BME280;21301;43.626;10.580;2024-02-26T00:32:07;100738.03;;;6.30;100.00
35129;BME280;21301;43.626;10.580;2024-02-26T00:34:32;100735.00;;;6.22;100.00
35129;BME280;21301;43.626;10.580;2024-02-26T00:36:59;100738.69;;;6.18;100.00
35129;BME280;21301;43.626;10.580;2024-02-26T00:39:26;100729.03;;;6.20;100.00
35129;BME280;21301;43.626;10.580;2024-02-26T00:41:51;100735.00;;;6.22;100.00
35129;BME280;21301;43.626;10.580;2024-02-26T00:44:17;100724.91;;;6.16;100.00
35129;BME280;21301;43.626;10.580;2024-02-26T00:46:44;100724.75;;;6.19;100.00
35129;BME280;21301;43.626;10.580;2024-02-26T00:49:09;100719.59;;;6.17;100.00
35129;BME280;21301;43.626;10.580;2024-02-26T00:51:35;100720.28;;;6.21;100.00
35129;BME280;21301;43.626;10.580;2024-02-26T00:54:02;100715.88;;;6.22;100.00
35129;BME280;21301;43.626;10.580;2024-02-26T00:56:27;100710.59;;;6.23;100.00
35129;BME280;21301;43.626;10.580;2024-02-26T00:58:53;100712.59;;;6.18;100.00
35129;BME280;21301;43.626;10.580;2024-02-26T01:01:18;100706.22;;;6.08;100.00
35129;BME280;21301;43.626;10.580;2024-02-26T01:03:47;100700.44;;;6.03;100.00
35129;BME280;21301;43.626;10.580;2024-02-26T01:06:12;100690.38;;;5.96;100.00
35129;BME280;21301;43.626;10.580;2024-02-26T01:08:40;100689.59;;;5.94;100.00
35129;BME280;21301;43.626;10.580;2024-02-26T01:11:06;100679.06;;;5.96;100.00
35129;BME280;21301;43.626;10.580;2024-02-26T01:13:33;100675.00;;;5.90;100.00
35129;BME280;21301;43.626;10.580;2024-02-26T01:15:58;100673.50;;;5.86;100.00
35129;BME280;21301;43.626;10.580;2024-02-26T01:18:26;100672.00;;;5.82;100.00
35129;BME280;21301;43.626;10.580;2024-02-26T01:20:51;100671.06;;;5.83;100.00
35129;BME280;21301;43.626;10.580;2024-02-26T01:23:20;100671.25;;;5.80;100.00
35129;BME280;21301;43.626;10.580;2024-02-26T01:25:47;100667.38;;;5.87;100.00
35129;BME280;21301;43.626;10.580;2024-02-26T01:28:14;100664.50;;;5.92;100.00
35129;BME280;21301;43.626;10.580;2024-02-26T01:30:41;100655.72;;;5.93;100.00
35129;BME280;21301;43.626;10.580;2024-02-26T01:33:09;100649.75;;;5.91;100.00
35129;BME280;21301;43.626;10.580;2024-02-26T01:35:35;100644.63;;;5.89;100.00
35129;BME280;21301;43.626;10.580;2024-02-26T01:38:01;100629.69;;;5.91;100.00
35129;BME280;21301;43.626;10.580;2024-02-26T01:40:27;100625.50;;;5.89;100.00
35129;BME280;21301;43.626;10.580;2024-02-26T01:42:53;100625.69;;;5.86;100.00
35129;BME280;21301;43.626;10.580;2024-02-26T01:45:19;100621.03;;;5.91;100.00
35129;BME280;21301;43.626;10.580;2024-02-26T01:47:50;100626.78;;;5.97;100.00
35129;BME280;21301;43.626;10.580;2024-02-26T01:50:17;100627.72;;;5.96;100.00
35129;BME280;21301;43.626;10.580;2024-02-26T01:52:45;100622.19;;;6.01;100.00
35129;BME280;21301;43.626;10.580;2024-02-26T01:55:12;100619.25;;;6.07;100.00
35129;BME280;21301;43.626;10.580;2024-02-26T01:57:41;100619.31;;;6.06;100.00
35129;BME280;21301;43.626;10.580;2024-02-26T02:00:09;100620.34;;;6.03;100.00
35129;BME280;21301;43.626;10.580;2024-02-26T02:02:35;100617.75;;;6.03;100.00
35129;BME280;21301;43.626;10.580;2024-02-26T02:05:02;100619.59;;;6.01;100.00
35129;BME280;21301;43.626;10.580;2024-02-26T02:07:28;100609.91;;;6.03;100.00
35129;BME280;21301;43.626;10.580;2024-02-26T02:09:54;100609.16;;;6.01;100.00
35129;BME280;21301;43.626;10.580;2024-02-26T02:12:21;100597.81;;;6.02;100.00
35129;BME280;21301;43.626;10.580;2024-02-26T02:14:50;100603.28;;;5.97;100.00
35129;BME280;21301;43.626;10.580;2024-02-26T02:17:15;100609.53;;;5.95;100.00
35129;BME280;21301;43.626;10.580;2024-02-26T02:19:41;100599.09;;;5.95;100.00
35129;BME280;21301;43.626;10.580;2024-02-26T02:22:06;100599.09;;;5.95;100.00
35129;BME280;21301;43.626;10.580;2024-02-26T02:24:33;100599.09;;;5.95;100.00
35129;BME280;21301;43.626;10.580;2024-02-26T02:27:00;100602.44;;;5.97;100.00
35129;BME280;21301;43.626;10.580;2024-02-26T02:29:26;100610.28;;;5.97;100.00
35129;BME280;21301;43.626;10.580;2024-02-26T02:31:54;100591.00;;;6.00;100.00
35129;BME280;21301;43.626;10.580;2024-02-26T02:34:21;100595.28;;;6.01;100.00
35129;BME280;21301;43.626;10.580;2024-02-26T02:36:56;100581.94;;;6.05;100.00
35129;BME280;21301;43.626;10.580;2024-02-26T02:39:21;100585.03;;;6.12;100.00
35129;BME280;21301;43.626;10.580;2024-02-26T02:41:47;100577.69;;;6.18;100.00
35129;BME280;21301;43.626;10.580;2024-02-26T02:44:13;100568.00;;;6.21;100.00
35129;BME280;21301;43.626;10.580;2024-02-26T02:46:39;100559.69;;;6.28;100.00
35129;BME280;21301;43.626;10.580;2024-02-26T02:49:08;100562.19;;;6.30;100.00
35129;BME280;21301;43.626;10.580;2024-02-26T02:51:35;100559.41;;;6.33;100.00
35129;BME280;21301;43.626;10.580;2024-02-26T02:54:01;100564.63;;;6.33;100.00
35129;BME280;21301;43.626;10.580;2024-02-26T02:56:30;100565.19;;;6.38;100.00
35129;BME280;21301;43.626;10.580;2024-02-26T02:58:57;100566.88;;;6.39;100.00
35129;BME280;21301;43.626;10.580;2024-02-26T03:01:24;100567.88;;;6.51;100.00
35129;BME280;21301;43.626;10.580;2024-02-26T03:03:49;100566.56;;;6.58;100.00
35129;BME280;21301;43.626;10.580;2024-02-26T03:06:16;100565.63;;;6.59;100.00
35129;BME280;21301;43.626;10.580;2024-02-26T03:08:42;100565.53;;;6.60;100.00
35129;BME280;21301;43.626;10.580;2024-02-26T03:11:12;100562.09;;;6.60;100.00
35129;BME280;21301;43.626;10.580;2024-02-26T03:13:37;100562.00;;;6.61;100.00
35129;BME280;21301;43.626;10.580;2024-02-26T03:16:06;100558.47;;;6.63;100.00
35129;BME280;21301;43.626;10.580;2024-02-26T03:18:32;100558.19;;;6.67;100.00
35129;BME280;21301;43.626;10.580;2024-02-26T03:20:57;100561.41;;;6.71;100.00
35129;BME280;21301;43.626;10.580;2024-02-26T03:23:24;100553.13;;;6.78;100.00
35129;BME280;21301;43.626;10.580;2024-02-26T03:25:49;100566.28;;;6.77;100.00
35129;BME280;21301;43.626;10.580;2024-02-26T03:28:15;100559.28;;;6.77;100.00
35129;BME280;21301;43.626;10.580;2024-02-26T03:30:40;100557.59;;;6.76;100.00
35129;BME280;21301;43.626;10.580;2024-02-26T03:33:06;100553.56;;;6.71;100.00
35129;BME280;21301;43.626;10.580;2024-02-26T03:35:32;100549.84;;;6.75;100.00
35129;BME280;21301;43.626;10.580;2024-02-26T03:37:57;100545.75;;;6.71;100.00
35129;BME280;21301;43.626;10.580;2024-02-26T03:40:23;100526.34;;;6.60;100.00
35129;BME280;21301;43.626;10.580;2024-02-26T03:42:50;100528.69;;;6.65;100.00
35129;BME280;21301;43.626;10.580;2024-02-26T03:45:18;100526.81;;;6.67;100.00
35129;BME280;21301;43.626;10.580;2024-02-26T03:47:44;100528.41;;;6.70;100.00
35129;BME280;21301;43.626;10.580;2024-02-26T03:50:09;100522.06;;;6.74;100.00
35129;BME280;21301;43.626;10.580;2024-02-26T03:52:36;100527.00;;;6.78;100.00
35129;BME280;21301;43.626;10.580;2024-02-26T03:55:02;100525.41;;;6.76;100.00
35129;BME280;21301;43.626;10.580;2024-02-26T03:57:27;100529.59;;;6.78;100.00
35129;BME280;21301;43.626;10.580;2024-02-26T03:59:53;100538.00;;;6.83;100.00
35129;BME280;21301;43.626;10.580;2024-02-26T04:02:19;100542.25;;;6.85;100.00
35129;BME280;21301;43.626;10.580;2024-02-26T04:04:46;100542.63;;;6.93;100.00
35129;BME280;21301;43.626;10.580;2024-02-26T04:07:11;100544.50;;;6.91;100.00
35129;BME280;21301;43.626;10.580;2024-02-26T04:09:38;100538.25;;;6.93;100.00
35129;BME280;21301;43.626;10.580;2024-02-26T04:12:05;100532.19;;;6.93;100.00
35129;BME280;21301;43.626;10.580;2024-02-26T04:14:31;100526.94;;;6.93;100.00
35129;BME280;21301;43.626;10.580;2024-02-26T04:16:58;100527.25;;;6.88;100.00
35129;BME280;21301;43.626;10.580;2024-02-26T04:19:23;100525.91;;;6.95;100.00
35129;BME280;21301;43.626;10.580;2024-02-26T04:21:49;100520.06;;;6.77;100.00
35129;BME280;21301;43.626;10.580;2024-02-26T04:24:15;100525.22;;;6.79;100.00
35129;BME280;21301;43.626;10.580;2024-02-26T04:26:40;100518.41;;;6.76;100.00
35129;BME280;21301;43.626;10.580;2024-02-26T04:29:06;100516.81;;;6.74;100.00
35129;BME280;21301;43.626;10.580;2024-02-26T04:31:32;100511.31;;;6.78;100.00
35129;BME280;21301;43.626;10.580;2024-02-26T04:33:58;100515.69;;;6.78;100.00
35129;BME280;21301;43.626;10.580;2024-02-26T04:36:24;100519.03;;;6.80;100.00
35129;BME280;21301;43.626;10.580;2024-02-26T04:38:51;100520.63;;;6.82;100.00
35129;BME280;21301;43.626;10.580;2024-02-26T04:41:16;100519.19;;;6.91;100.00
35129;BME280;21301;43.626;10.580;2024-02-26T04:43:42;100521.44;;;6.83;100.00
35129;BME280;21301;43.626;10.580;2024-02-26T04:46:09;100523.75;;;6.88;100.00
35129;BME280;21301;43.626;10.580;2024-02-26T04:48:35;100516.66;;;6.90;100.00
35129;BME280;21301;43.626;10.580;2024-02-26T04:51:02;100520.03;;;6.92;100.00
35129;BME280;21301;43.626;10.580;2024-02-26T04:53:28;100516.66;;;6.90;100.00
35129;BME280;21301;43.626;10.580;2024-02-26T04:55:54;100512.84;;;6.95;100.00
35129;BME280;21301;43.626;10.580;2024-02-26T04:58:19;100516.09;;;6.99;100.00
35129;BME280;21301;43.626;10.580;2024-02-26T05:00:45;100505.63;;;6.99;100.00
35129;BME280;21301;43.626;10.580;2024-02-26T05:03:11;100513.69;;;6.96;100.00
35129;BME280;21301;43.626;10.580;2024-02-26T05:05:44;100511.97;;;6.95;100.00
35129;BME280;21301;43.626;10.580;2024-02-26T05:08:10;100521.31;;;6.99;100.00
35129;BME280;21301;43.626;10.580;2024-02-26T05:10:37;100515.88;;;7.02;100.00
35129;BME280;21301;43.626;10.580;2024-02-26T05:13:05;100511.59;;;7.01;100.00
35129;BME280;21301;43.626;10.580;2024-02-26T05:15:31;100516.84;;;7.01;100.00
35129;BME280;21301;43.626;10.580;2024-02-26T05:17:57;100517.88;;;6.98;100.00
35129;BME280;21301;43.626;10.580;2024-02-26T05:20:23;100510.31;;;6.94;100.00
35129;BME280;21301;43.626;10.580;2024-02-26T05:22:49;100526.38;;;6.88;100.00
35129;BME280;21301;43.626;10.580;2024-02-26T05:25:15;100520.78;;;6.94;100.00
35129;BME280;21301;43.626;10.580;2024-02-26T05:27:43;100513.88;;;6.93;100.00
35129;BME280;21301;43.626;10.580;2024-02-26T05:30:13;100518.38;;;6.91;100.00
35129;BME280;21301;43.626;10.580;2024-02-26T05:32:40;100515.84;;;6.89;100.00
35129;BME280;21301;43.626;10.580;2024-02-26T05:35:06;100522.34;;;6.96;100.00
35129;BME280;21301;43.626;10.580;2024-02-26T05:37:33;100523.94;;;6.99;100.00
35129;BME280;21301;43.626;10.580;2024-02-26T05:40:00;100525.41;;;7.03;100.00
35129;BME280;21301;43.626;10.580;2024-02-26T05:42:25;100516.19;;;6.97;100.00
35129;BME280;21301;43.626;10.580;2024-02-26T05:44:52;100510.31;;;6.94;100.00
35129;BME280;21301;43.626;10.580;2024-02-26T05:47:19;100502.47;;;6.94;100.00
35129;BME280;21301;43.626;10.580;2024-02-26T05:49:45;100511.16;;;6.94;100.00
35129;BME280;21301;43.626;10.580;2024-02-26T05:52:10;100511.34;;;6.91;100.00
35129;BME280;21301;43.626;10.580;2024-02-26T05:54:37;100515.94;;;6.88;100.00
35129;BME280;21301;43.626;10.580;2024-02-26T05:57:02;100505.47;;;6.88;100.00
35129;BME280;21301;43.626;10.580;2024-02-26T05:59:29;100505.88;;;6.81;100.00
35129;BME280;21301;43.626;10.580;2024-02-26T06:01:55;100514.34;;;6.85;100.00
35129;BME280;21301;43.626;10.580;2024-02-26T06:04:21;100519.56;;;6.85;100.00
35129;BME280;21301;43.626;10.580;2024-02-26T06:06:46;100510.16;;;6.82;100.00
35129;BME280;21301;43.626;10.580;2024-02-26T06:09:12;100510.91;;;6.85;100.00
35129;BME280;21301;43.626;10.580;2024-02-26T06:11:38;100509.25;;;6.83;100.00
35129;BME280;21301;43.626;10.580;2024-02-26T06:14:04;100518.75;;;6.85;100.00
35129;BME280;21301;43.626;10.580;2024-02-26T06:16:30;100531.34;;;6.78;100.00
35129;BME280;21301;43.626;10.580;2024-02-26T06:18:58;100527.31;;;6.87;100.00
35129;BME280;21301;43.626;10.580;2024-02-26T06:21:25;100516.03;;;6.86;100.00
35129;BME280;21301;43.626;10.580;2024-02-26T06:23:51;100515.50;;;6.81;100.00
35129;BME280;21301;43.626;10.580;2024-02-26T06:26:17;100516.53;;;6.78;100.00
35129;BME280;21301;43.626;10.580;2024-02-26T06:28:42;100512.22;;;6.77;100.00
35129;BME280;21301;43.626;10.580;2024-02-26T06:31:08;100506.47;;;6.72;100.00
35129;BME280;21301;43.626;10.580;2024-02-26T06:33:34;100507.41;;;6.71;100.00
35129;BME280;21301;43.626;10.580;2024-02-26T06:35:59;100506.47;;;6.72;100.00
35129;BME280;21301;43.626;10.580;2024-02-26T06:38:26;100506.66;;;6.69;100.00
35129;BME280;21301;43.626;10.580;2024-02-26T06:40:51;100505.16;;;6.65;100.00
35129;BME280;21301;43.626;10.580;2024-02-26T06:43:18;100503.59;;;6.63;100.00
35129;BME280;21301;43.626;10.580;2024-02-26T06:45:46;100499.19;;;6.63;100.00
35129;BME280;21301;43.626;10.580;2024-02-26T06:48:23;100508.91;;;6.61;100.00
35129;BME280;21301;43.626;10.580;2024-02-26T06:50:49;100506.00;;;6.66;100.00
35129;BME280;21301;43.626;10.580;2024-02-26T06:53:15;100509.56;;;6.65;100.00
35129;BME280;21301;43.626;10.580;2024-02-26T06:55:42;100516.56;;;6.64;100.00
35129;BME280;21301;43.626;10.580;2024-02-26T06:58:08;100518.16;;;6.67;100.00
35129;BME280;21301;43.626;10.580;2024-02-26T07:00:34;100508.81;;;6.63;100.00
35129;BME280;21301;43.626;10.580;2024-02-26T07:03:00;100501.22;;;6.72;100.00
35129;BME280;21301;43.626;10.580;2024-02-26T07:05:27;100501.16;;;6.74;100.00
35129;BME280;21301;43.626;10.580;2024-02-26T07:07:52;100485.88;;;6.80;100.00
35129;BME280;21301;43.626;10.580;2024-02-26T07:10:19;100486.00;;;6.79;100.00
35129;BME280;21301;43.626;10.580;2024-02-26T07:12:45;100490.50;;;6.77;100.00
35129;BME280;21301;43.626;10.580;2024-02-26T07:15:11;100493.16;;;6.90;100.00
35129;BME280;21301;43.626;10.580;2024-02-26T07:17:37;100487.94;;;7.30;100.00
35129;BME280;21301;43.626;10.580;2024-02-26T07:20:08;100495.25;;;7.24;100.00
35129;BME280;21301;43.626;10.580;2024-02-26T07:22:34;100496.75;;;7.01;100.00
35129;BME280;21301;43.626;10.580;2024-02-26T07:25:00;100497.50;;;7.03;100.00
35129;BME280;21301;43.626;10.580;2024-02-26T07:27:25;100499.69;;;7.37;100.00
35129;BME280;21301;43.626;10.580;2024-02-26T07:29:51;100496.69;;;7.68;100.00
35129;BME280;21301;43.626;10.580;2024-02-26T07:32:17;100498.50;;;7.28;100.00
35129;BME280;21301;43.626;10.580;2024-02-26T07:34:43;100501.69;;;7.46;100.00
35129;BME280;21301;43.626;10.580;2024-02-26T07:37:11;100497.09;;;7.50;100.00
35129;BME280;21301;43.626;10.580;2024-02-26T07:39:36;100499.09;;;7.46;100.00
35129;BME280;21301;43.626;10.580;2024-02-26T07:42:02;100500.22;;;7.55;100.00
35129;BME280;21301;43.626;10.580;2024-02-26T07:44:28;100502.81;;;7.42;100.00
35129;BME280;21301;43.626;10.580;2024-02-26T07:46:55;100501.66;;;7.33;100.00
35129;BME280;21301;43.626;10.580;2024-02-26T07:49:21;100495.41;;;7.09;100.00
35129;BME280;21301;43.626;10.580;2024-02-26T07:51:46;100500.84;;;7.06;100.00
35129;BME280;21301;43.626;10.580;2024-02-26T07:54:13;100489.44;;;7.07;100.00
35129;BME280;21301;43.626;10.580;2024-02-26T07:56:42;100498.91;;;6.95;100.00
35129;BME280;21301;43.626;10.580;2024-02-26T07:59:08;100499.81;;;6.81;100.00
35129;BME280;21301;43.626;10.580;2024-02-26T08:01:35;100493.72;;;6.80;100.00
35129;BME280;21301;43.626;10.580;2024-02-26T08:04:01;100495.47;;;6.67;100.00
35129;BME280;21301;43.626;10.580;2024-02-26T08:06:27;100496.38;;;6.66;100.00
35129;BME280;21301;43.626;10.580;2024-02-26T08:08:53;100499.84;;;6.67;100.00
35129;BME280;21301;43.626;10.580;2024-02-26T08:11:18;100493.75;;;6.66;100.00
35129;BME280;21301;43.626;10.580;2024-02-26T08:13:45;100485.31;;;6.63;100.00
35129;BME280;21301;43.626;10.580;2024-02-26T08:16:12;100485.00;;;6.67;100.00
35129;BME280;21301;43.626;10.580;2024-02-26T08:18:37;100474.75;;;6.64;100.00
35129;BME280;21301;43.626;10.580;2024-02-26T08:21:03;100484.81;;;6.70;100.00
35129;BME280;21301;43.626;10.580;2024-02-26T08:23:29;100473.59;;;6.68;100.00
35129;BME280;21301;43.626;10.580;2024-02-26T08:25:56;100482.94;;;6.72;100.00
35129;BME280;21301;43.626;10.580;2024-02-26T08:28:21;100475.75;;;6.76;100.00
35129;BME280;21301;43.626;10.580;2024-02-26T08:30:47;100474.06;;;6.75;100.00
35129;BME280;21301;43.626;10.580;2024-02-26T08:33:13;100481.69;;;6.78;100.00
35129;BME280;21301;43.626;10.580;2024-02-26T08:35:39;100470.78;;;6.86;100.00
35129;BME280;21301;43.626;10.580;2024-02-26T08:38:04;100475.59;;;6.92;100.00
35129;BME280;21301;43.626;10.580;2024-02-26T08:40:30;100479.91;;;6.93;100.00
35129;BME280;21301;43.626;10.580;2024-02-26T08:42:55;100469.63;;;6.90;100.00
35129;BME280;21301;43.626;10.580;2024-02-26T08:45:21;100465.06;;;6.93;100.00
35129;BME280;21301;43.626;10.580;2024-02-26T08:47:48;100456.38;;;6.93;100.00
35129;BME280;21301;43.626;10.580;2024-02-26T08:50:14;100465.97;;;6.92;100.00
35129;BME280;21301;43.626;10.580;2024-02-26T08:52:40;100462.53;;;6.92;100.00
35129;BME280;21301;43.626;10.580;2024-02-26T08:55:06;100467.47;;;6.96;100.00
35129;BME280;21301;43.626;10.580;2024-02-26T08:57:34;100453.78;;;7.06;100.00
35129;BME280;21301;43.626;10.580;2024-02-26T09:00:01;100447.38;;;6.97;100.00
35129;BME280;21301;43.626;10.580;2024-02-26T09:02:34;100435.78;;;7.01;100.00
35129;BME280;21301;43.626;10.580;2024-02-26T09:05:06;100442.88;;;6.99;100.00
35129;BME280;21301;43.626;10.580;2024-02-26T09:07:37;100438.94;;;7.06;100.00
35129;BME280;21301;43.626;10.580;2024-02-26T09:10:05;100439.25;;;7.14;100.00
35129;BME280;21301;43.626;10.580;2024-02-26T09:12:36;100435.94;;;7.12;100.00
35129;BME280;21301;43.626;10.580;2024-02-26T09:15:03;100429.97;;;7.23;100.00
35129;BME280;21301;43.626;10.580;2024-02-26T09:17:29;100424.00;;;7.21;100.00
35129;BME280;21301;43.626;10.580;2024-02-26T09:19:54;100423.81;;;7.24;100.00
35129;BME280;21301;43.626;10.580;2024-02-26T09:22:20;100423.81;;;7.24;100.00
35129;BME280;21301;43.626;10.580;2024-02-26T09:24:45;100418.81;;;7.34;100.00
35129;BME280;21301;43.626;10.580;2024-02-26T09:27:11;100411.06;;;7.32;100.00
35129;BME280;21301;43.626;10.580;2024-02-26T09:29:37;100405.72;;;7.34;100.00
35129;BME280;21301;43.626;10.580;2024-02-26T09:32:02;100421.09;;;7.38;100.00
35129;BME280;21301;43.626;10.580;2024-02-26T09:34:28;100414.28;;;7.36;100.00
35129;BME280;21301;43.626;10.580;2024-02-26T09:36:54;100413.25;;;7.38;100.00
35129;BME280;21301;43.626;10.580;2024-02-26T09:39:21;100413.88;;;7.42;100.00
35129;BME280;21301;43.626;10.580;2024-02-26T09:41:50;100411.38;;;7.40;100.00
35129;BME280;21301;43.626;10.580;2024-02-26T09:44:20;100415.16;;;7.36;100.00
35129;BME280;21301;43.626;10.580;2024-02-26T09:46:47;100418.50;;;7.51;100.00
35129;BME280;21301;43.626;10.580;2024-02-26T09:49:18;100433.25;;;7.52;100.00
35129;BME280;21301;43.626;10.580;2024-02-26T09:51:47;100429.03;;;7.62;100.00
35129;BME280;21301;43.626;10.580;2024-02-26T09:54:15;100427.91;;;7.54;100.00
35129;BME280;21301;43.626;10.580;2024-02-26T09:56:43;100418.06;;;7.57;100.00
35129;BME280;21301;43.626;10.580;2024-02-26T09:59:17;100409.28;;;7.58;100.00
35129;BME280;21301;43.626;10.580;2024-02-26T10:01:44;100405.94;;;7.56;100.00
35129;BME280;21301;43.626;10.580;2024-02-26T10:04:10;100398.31;;;7.53;100.00
35129;BME280;21301;43.626;10.580;2024-02-26T10:06:37;100404.59;;;7.51;100.00
35129;BME280;21301;43.626;10.580;2024-02-26T10:09:03;100395.03;;;7.50;100.00
35129;BME280;21301;43.626;10.580;2024-02-26T10:11:32;100400.28;;;7.50;100.00
35129;BME280;21301;43.626;10.580;2024-02-26T10:13:58;100396.31;;;7.44;100.00
35129;BME280;21301;43.626;10.580;2024-02-26T10:16:24;100389.94;;;7.48;100.00
35129;BME280;21301;43.626;10.580;2024-02-26T10:18:51;100392.56;;;7.48;100.00
35129;BME280;21301;43.626;10.580;2024-02-26T10:21:21;100394.31;;;7.47;100.00
35129;BME280;21301;43.626;10.580;2024-02-26T10:23:49;100379.25;;;7.51;100.00
35129;BME280;21301;43.626;10.580;2024-02-26T10:26:16;100377.38;;;7.53;100.00
35129;BME280;21301;43.626;10.580;2024-02-26T10:28:43;100380.50;;;7.58;100.00
35129;BME280;21301;43.626;10.580;2024-02-26T10:31:10;100387.09;;;7.64;100.00
35129;BME280;21301;43.626;10.580;2024-02-26T10:33:38;100384.25;;;7.67;100.00
35129;BME280;21301;43.626;10.580;2024-02-26T10:36:06;100377.75;;;7.60;100.00
35129;BME280;21301;43.626;10.580;2024-02-26T10:38:34;100385.19;;;7.66;100.00
35129;BME280;21301;43.626;10.580;2024-02-26T10:41:02;100371.91;;;7.69;100.00
35129;BME280;21301;43.626;10.580;2024-02-26T10:43:32;100374.41;;;7.71;100.00
35129;BME280;21301;43.626;10.580;2024-02-26T10:45:59;100363.13;;;7.70;100.00
35129;BME280;21301;43.626;10.580;2024-02-26T10:48:27;100362.91;;;7.73;100.00
35129;BME280;21301;43.626;10.580;2024-02-26T10:50:54;100369.59;;;7.77;100.00
35129;BME280;21301;43.626;10.580;2024-02-26T10:53:22;100358.50;;;7.74;100.00
35129;BME280;21301;43.626;10.580;2024-02-26T10:55:54;100361.84;;;7.76;100.00
35129;BME280;21301;43.626;10.580;2024-02-26T10:58:22;100368.53;;;7.80;100.00
35129;BME280;21301;43.626;10.580;2024-02-26T11:00:50;100372.53;;;7.73;100.00
35129;BME280;21301;43.626;10.580;2024-02-26T11:03:16;100371.78;;;7.83;100.00
35129;BME280;21301;43.626;10.580;2024-02-26T11:05:47;100369.28;;;7.82;100.00
35129;BME280;21301;43.626;10.580;2024-02-26T11:08:14;100363.91;;;7.83;100.00
35129;BME280;21301;43.626;10.580;2024-02-26T11:10:40;100365.81;;;7.81;100.00
35129;BME280;21301;43.626;10.580;2024-02-26T11:13:09;100363.81;;;7.85;100.00
35129;BME280;21301;43.626;10.580;2024-02-26T11:15:38;100357.63;;;7.86;100.00
35129;BME280;21301;43.626;10.580;2024-02-26T11:18:06;100350.00;;;7.83;100.00
35129;BME280;21301;43.626;10.580;2024-02-26T11:20:33;100354.00;;;7.76;100.00
35129;BME280;21301;43.626;10.580;2024-02-26T11:22:59;100350.53;;;7.75;100.00
35129;BME280;21301;43.626;10.580;2024-02-26T11:25:25;100348.25;;;7.71;100.00
35129;BME280;21301;43.626;10.580;2024-02-26T11:27:55;100343.25;;;7.67;100.00
35129;BME280;21301;43.626;10.580;2024-02-26T11:30:24;100333.28;;;7.73;100.00
35129;BME280;21301;43.626;10.580;2024-02-26T11:32:51;100333.47;;;7.69;100.00
35129;BME280;21301;43.626;10.580;2024-02-26T11:35:18;100343.44;;;7.77;100.00
35129;BME280;21301;43.626;10.580;2024-02-26T11:37:57;100332.44;;;7.72;100.00
35129;BME280;21301;43.626;10.580;2024-02-26T11:40:24;100334.63;;;7.78;100.00
35129;BME280;21301;43.626;10.580;2024-02-26T11:42:51;100338.28;;;7.76;100.00
35129;BME280;21301;43.626;10.580;2024-02-26T11:48:12;100317.84;;;7.81;100.00
35129;BME280;21301;43.626;10.580;2024-02-26T11:50:43;100311.38;;;7.86;100.00
35129;BME280;21301;43.626;10.580;2024-02-26T11:53:27;100315.41;;;7.90;100.00
35129;BME280;21301;43.626;10.580;2024-02-26T11:58:45;100327.06;;;7.86;100.00
35129;BME280;21301;43.626;10.580;2024-02-26T12:01:40;100329.78;;;7.85;100.00
35129;BME280;21301;43.626;10.580;2024-02-26T12:04:18;100319.09;;;7.88;100.00
35129;BME280;21301;43.626;10.580;2024-02-26T12:07:11;100319.91;;;7.88;100.00
35129;BME280;21301;43.626;10.580;2024-02-26T12:09:40;100316.81;;;7.83;100.00
35129;BME280;21301;43.626;10.580;2024-02-26T12:12:08;100311.50;;;7.72;100.00
35129;BME280;21301;43.626;10.580;2024-02-26T12:14:38;100316.63;;;7.74;100.00
35129;BME280;21301;43.626;10.580;2024-02-26T12:17:06;100303.66;;;7.72;100.00
35129;BME280;21301;43.626;10.580;2024-02-26T12:19:36;100312.75;;;7.79;100.00
35129;BME280;21301;43.626;10.580;2024-02-26T12:22:03;100308.22;;;7.81;100.00
35129;BME280;21301;43.626;10.580;2024-02-26T12:24:33;100298.81;;;7.79;100.00
35129;BME280;21301;43.626;10.580;2024-02-26T12:26:58;100311.16;;;7.77;100.00
35129;BME280;21301;43.626;10.580;2024-02-26T12:29:24;100308.28;;;7.93;100.00
35129;BME280;21301;43.626;10.580;2024-02-26T12:31:51;100302.84;;;7.96;100.00
35129;BME280;21301;43.626;10.580;2024-02-26T12:34:17;100296.88;;;7.94;100.00
35129;BME280;21301;43.626;10.580;2024-02-26T12:36:43;100281.06;;;7.95;100.00
35129;BME280;21301;43.626;10.580;2024-02-26T12:39:09;100288.31;;;7.92;100.00
35129;BME280;21301;43.626;10.580;2024-02-26T12:41:35;100264.63;;;7.93;100.00
35129;BME280;21301;43.626;10.580;2024-02-26T12:44:01;100271.31;;;7.97;100.00